Time;durP1;ratioP1;P1;durP2;ratioP2;P2;SDS_P1;SDS_P2;PMS_P1;PMS_P2;Temp;Humidity;BMP_temperature;BMP_pressure;BME280_temperature;BME280_humidity;BME280_pressure;Samples;Min_cycle;Max_cycle;Signal;HPM_P1;HPM_P2
2024/01/09 00:00:22;;;;;;;;;;;-2.90;98.50;;;;;;5118864;27;20373;-76
2024/01/09 00:02:49;;;;;;;;;;;-1.00;98.90;;;;;;5122442;27;19970;-76
2024/01/09 00:05:14;;;;;;;;;;;-2.90;98.60;;;;;;5122725;27;19946;-76
2024/01/09 00:07:43;;;;;;;;;;;-3.00;98.60;;;;;;5123774;27;20195;-75
2024/01/09 00:10:09;;;;;;;;;;;-3.00;98.50;;;;;;5126202;27;19976;-75
2024/01/09 00:12:34;;;;;;;;;;;-2.60;98.70;;;;;;5121610;27;19981;-76
2024/01/09 00:15:00;;;;;;;;;;;-2.20;98.80;;;;;;5102157;27;20223;-75
2024/01/09 00:17:25;;;;;;;;;;;-2.70;98.70;;;;;;5104020;27;19972;-76
2024/01/09 00:19:51;;;;;;;;;;;-1.60;99.10;;;;;;5103258;27;20398;-76
2024/01/09 00:22:16;;;;;;;;;;;-2.20;98.90;;;;;;5120131;27;19931;-76
2024/01/09 00:24:42;;;;;;;;;;;-2.00;99.00;;;;;;5121278;27;19944;-76
2024/01/09 00:27:14;;;;;;;;;;;-2.00;99.00;;;;;;5122693;27;20012;-76
2024/01/09 00:29:40;;;;;;;;;;;-3.00;99.00;;;;;;5120163;27;20013;-76
2024/01/09 00:32:06;;;;;;;;;;;-1.40;99.20;;;;;;5140496;27;19927;-76
2024/01/09 00:34:31;;;;;;;;;;;-2.70;98.90;;;;;;5117064;27;20409;-76
2024/01/09 00:36:57;;;;;;;;;;;-3.00;98.80;;;;;;5120029;27;20389;-76
2024/01/09 00:39:23;;;;;;;;;;;-3.10;98.70;;;;;;5118043;27;20564;-76
2024/01/09 00:41:50;;;;;;;;;;;-3.20;98.70;;;;;;5091147;27;20400;-76
2024/01/09 00:44:16;;;;;;;;;;;-1.50;99.10;;;;;;5118230;27;20018;-75
2024/01/09 00:46:41;;;;;;;;;;;-2.90;98.90;;;;;;5119399;27;20421;-76
2024/01/09 00:49:07;;;;;;;;;;;-2.30;99.00;;;;;;5104349;27;19941;-75
2024/01/09 00:51:32;;;;;;;;;;;-3.00;98.90;;;;;;5118697;27;19967;-76
2024/01/09 00:53:58;;;;;;;;;;;-2.70;99.00;;;;;;5116198;27;19926;-75
2024/01/09 00:56:24;;;;;;;;;;;-2.90;99.00;;;;;;5104126;27;19952;-76
2024/01/09 00:58:52;;;;;;;;;;;-3.10;98.90;;;;;;5104899;27;19931;-76
2024/01/09 01:01:18;;;;;;;;;;;-3.00;99.00;;;;;;5117538;27;19938;-76
2024/01/09 01:03:49;;;;;;;;;;;-1.10;99.50;;;;;;5118090;27;19954;-76
2024/01/09 01:06:15;;;;;;;;;;;-2.30;99.20;;;;;;5117781;27;19927;-76
2024/01/09 01:08:40;;;;;;;;;;;-2.10;99.30;;;;;;5121668;27;20347;-76
2024/01/09 01:11:06;;;;;;;;;;;-2.30;99.20;;;;;;5120760;27;20018;-76
2024/01/09 01:13:32;;;;;;;;;;;-1.30;99.50;;;;;;5105829;27;19919;-76
2024/01/09 01:15:57;;;;;;;;;;;-1.40;99.50;;;;;;5106519;27;19934;-75
2024/01/09 01:18:23;;;;;;;;;;;-3.10;99.10;;;;;;5109171;27;19988;-76
2024/01/09 01:20:49;;;;;;;;;;;-4.80;98.70;;;;;;5107084;27;19923;-76
2024/01/09 01:23:14;;;;;;;;;;;-3.20;99.20;;;;;;5108391;27;20458;-75
2024/01/09 01:25:40;;;;;;;;;;;-3.10;99.10;;;;;;5124320;27;19934;-75
2024/01/09 01:28:06;;;;;;;;;;;-3.50;99.00;;;;;;5089352;27;19935;-76
2024/01/09 01:30:31;;;;;;;;;;;-3.10;99.20;;;;;;5104240;27;20146;-76
2024/01/09 01:32:57;;;;;;;;;;;-2.60;99.30;;;;;;5124619;27;19923;-76
2024/01/09 01:35:22;;;;;;;;;;;-3.20;99.10;;;;;;5107190;27;20396;-76
2024/01/09 01:37:48;;;;;;;;;;;-3.50;99.00;;;;;;5125518;27;19931;-76
2024/01/09 01:40:14;;;;;;;;;;;-1.50;99.50;;;;;;5106563;27;20420;-75
2024/01/09 01:42:39;;;;;;;;;;;-3.40;99.00;;;;;;5109388;27;19954;-75
2024/01/09 01:45:16;;;;;;;;;;;-1.80;99.40;;;;;;5126354;27;20027;-76
2024/01/09 01:47:45;;;;;;;;;;;-3.50;98.90;;;;;;5142317;27;19952;-76
2024/01/09 01:50:12;;;;;;;;;;;-3.60;98.90;;;;;;5121285;27;19926;-75
2024/01/09 01:52:38;;;;;;;;;;;-3.50;98.90;;;;;;5126506;27;19979;-76
2024/01/09 01:55:05;;;;;;;;;;;-1.90;99.30;;;;;;5124904;27;19935;-75
2024/01/09 01:57:31;;;;;;;;;;;-3.60;98.90;;;;;;5123331;27;19927;-76
2024/01/09 01:59:57;;;;;;;;;;;-2.70;99.10;;;;;;5091326;27;19951;-75
2024/01/09 02:02:25;;;;;;;;;;;-1.70;99.50;;;;;;5108123;27;19927;-75
2024/01/09 02:04:51;;;;;;;;;;;-3.70;98.90;;;;;;5141310;27;19935;-76
2024/01/09 02:07:16;;;;;;;;;;;-3.30;99.10;;;;;;5141284;27;19978;-75
2024/01/09 02:09:42;;;;;;;;;;;-1.50;99.60;;;;;;5110516;27;19931;-75
2024/01/09 02:12:07;;;;;;;;;;;-3.60;99.00;;;;;;5142984;27;19931;-75
2024/01/09 02:14:36;;;;;;;;;;;-3.80;99.00;;;;;;5124241;27;20416;-74
2024/01/09 02:17:02;;;;;;;;;;;-1.80;99.60;;;;;;5126075;27;20033;-76
2024/01/09 02:19:28;;;;;;;;;;;-3.70;99.10;;;;;;5108238;27;19927;-76
2024/01/09 02:21:53;;;;;;;;;;;-3.80;99.20;;;;;;5124141;27;19923;-76
2024/01/09 02:24:19;;;;;;;;;;;-1.90;99.70;;;;;;5105893;27;19938;-74
2024/01/09 02:26:46;;;;;;;;;;;-2.30;99.70;;;;;;5123817;27;19923;-76
2024/01/09 02:29:15;;;;;;;;;;;-2.70;99.60;;;;;;5110422;27;19927;-75
2024/01/09 02:31:42;;;;;;;;;;;-2.20;99.70;;;;;;5126469;27;19934;-75
2024/01/09 02:34:10;;;;;;;;;;;-3.60;99.40;;;;;;5124028;27;19931;-76
2024/01/09 02:36:36;;;;;;;;;;;-2.60;99.80;;;;;;5106751;27;19927;-75
2024/01/09 02:39:02;;;;;;;;;;;-3.90;99.80;;;;;;5127016;27;20327;-75
2024/01/09 02:41:28;;;;;;;;;;;-3.70;99.60;;;;;;5113806;27;19962;-75
2024/01/09 02:43:53;;;;;;;;;;;-3.60;99.80;;;;;;5106711;27;19931;-75
2024/01/09 02:46:19;;;;;;;;;;;-3.40;99.80;;;;;;5104603;27;19927;-75
2024/01/09 02:48:45;;;;;;;;;;;-3.70;99.80;;;;;;5124622;27;19930;-76
2024/01/09 02:51:10;;;;;;;;;;;-3.70;99.80;;;;;;5106993;27;20053;-76
2024/01/09 02:53:36;;;;;;;;;;;-3.90;99.80;;;;;;5124124;27;20466;-75
2024/01/09 02:56:03;;;;;;;;;;;-4.10;99.80;;;;;;5104115;27;20584;-75
2024/01/09 02:58:28;;;;;;;;;;;-3.90;99.80;;;;;;5126073;27;20372;-74
2024/01/09 03:00:54;;;;;;;;;;;-1.50;99.90;;;;;;5126015;27;20366;-75
2024/01/09 03:03:19;;;;;;;;;;;-2.90;99.90;;;;;;5123221;27;20056;-75
2024/01/09 03:05:45;;;;;;;;;;;-4.00;99.90;;;;;;5125914;27;19927;-75
2024/01/09 03:08:11;;;;;;;;;;;-2.10;99.90;;;;;;5122558;27;19927;-75
2024/01/09 03:10:39;;;;;;;;;;;-3.70;99.90;;;;;;5141963;27;19979;-75
2024/01/09 03:13:05;;;;;;;;;;;-4.50;99.90;;;;;;5107165;27;19939;-76
2024/01/09 03:15:31;;;;;;;;;;;-4.10;99.90;;;;;;5108100;27;19924;-75
2024/01/09 03:18:03;;;;;;;;;;;-3.80;99.90;;;;;;5105115;27;19923;-75
2024/01/09 03:20:29;;;;;;;;;;;-4.00;99.90;;;;;;5121077;27;19931;-75
2024/01/09 03:22:55;;;;;;;;;;;-3.50;99.90;;;;;;5105204;27;19996;-75
2024/01/09 03:25:20;;;;;;;;;;;-3.90;99.90;;;;;;5089940;27;19975;-75
2024/01/09 03:27:54;;;;;;;;;;;-2.70;99.90;;;;;;5109427;27;22020;-76
2024/01/09 03:30:29;;;;;;;;;;;-4.10;99.90;;;;;;5122152;27;20292;-75
2024/01/09 03:32:56;;;;;;;;;;;-4.10;99.90;;;;;;5139858;27;19931;-75
2024/01/09 03:35:21;;;;;;;;;;;-3.80;99.90;;;;;;5122880;27;19927;-75
2024/01/09 03:37:47;;;;;;;;;;;-3.80;99.90;;;;;;5122637;27;19938;-75
2024/01/09 03:40:13;;;;;;;;;;;-4.00;99.90;;;;;;5121340;27;19927;-76
2024/01/09 03:42:39;;;;;;;;;;;-3.80;99.90;;;;;;5104611;27;19931;-76
2024/01/09 03:45:06;;;;;;;;;;;-3.80;99.90;;;;;;5105283;27;19934;-76
2024/01/09 03:47:31;;;;;;;;;;;-4.00;99.90;;;;;;5107427;27;19934;-75
2024/01/09 03:49:57;;;;;;;;;;;-3.90;99.90;;;;;;5123771;27;19919;-76
2024/01/09 03:52:26;;;;;;;;;;;-4.00;99.90;;;;;;5117755;27;19959;-76
2024/01/09 03:54:51;;;;;;;;;;;-4.10;99.90;;;;;;5102692;27;19974;-75
2024/01/09 03:57:17;;;;;;;;;;;-3.80;99.90;;;;;;5128372;27;19934;-76
2024/01/09 03:59:42;;;;;;;;;;;-2.30;99.90;;;;;;5109864;27;20048;-74
2024/01/09 04:02:09;;;;;;;;;;;-1.80;99.90;;;;;;5122285;27;20403;-75
2024/01/09 04:04:40;;;;;;;;;;;-4.00;99.90;;;;;;5122010;27;19930;-75
2024/01/09 04:07:05;;;;;;;;;;;-1.90;99.90;;;;;;5120154;27;19927;-76
2024/01/09 04:09:31;;;;;;;;;;;-1.90;99.90;;;;;;5123333;27;19931;-76
2024/01/09 04:11:56;;;;;;;;;;;-2.10;99.90;;;;;;5108993;27;19927;-76
2024/01/09 04:14:22;;;;;;;;;;;-4.10;99.90;;;;;;5120339;27;19986;-75
2024/01/09 04:16:48;;;;;;;;;;;-2.10;99.90;;;;;;5123925;27;19932;-76
2024/01/09 04:19:21;;;;;;;;;;;-3.70;99.90;;;;;;5104922;27;20270;-75
2024/01/09 04:21:47;;;;;;;;;;;-3.10;99.90;;;;;;5086822;27;19923;-75
2024/01/09 04:24:18;;;;;;;;;;;-3.10;99.90;;;;;;5120764;27;19998;-76
2024/01/09 04:26:44;;;;;;;;;;;-2.70;99.90;;;;;;5122253;27;20018;-75
2024/01/09 04:29:09;;;;;;;;;;;-3.90;99.90;;;;;;5122052;27;19946;-75
2024/01/09 04:31:35;;;;;;;;;;;-4.10;99.90;;;;;;5115732;27;19927;-75
2024/01/09 04:34:01;;;;;;;;;;;-2.60;99.90;;;;;;5120813;27;19927;-75
2024/01/09 04:36:28;;;;;;;;;;;-4.30;99.90;;;;;;5105853;27;19919;-76
2024/01/09 04:38:54;;;;;;;;;;;-4.20;99.90;;;;;;5135821;27;19958;-75
2024/01/09 04:41:20;;;;;;;;;;;-2.10;99.90;;;;;;5123252;27;19966;-75
2024/01/09 04:43:46;;;;;;;;;;;-4.20;99.90;;;;;;5106421;27;19927;-76
2024/01/09 04:46:12;;;;;;;;;;;-4.20;99.90;;;;;;5125870;27;20006;-76
2024/01/09 04:48:38;;;;;;;;;;;-4.20;99.90;;;;;;5142905;27;19980;-75
2024/01/09 04:51:04;;;;;;;;;;;-3.80;99.90;;;;;;5125942;27;19981;-75
2024/01/09 04:53:30;;;;;;;;;;;-3.90;99.90;;;;;;5121563;27;20382;-75
2024/01/09 04:55:55;;;;;;;;;;;-4.00;99.90;;;;;;5121843;27;19931;-76
2024/01/09 04:58:21;;;;;;;;;;;-3.90;99.90;;;;;;5121925;27;19971;-76
2024/01/09 05:00:48;;;;;;;;;;;-3.40;99.90;;;;;;5123876;27;20024;-76
2024/01/09 05:03:14;;;;;;;;;;;-1.90;99.90;;;;;;5124206;27;20047;-76
2024/01/09 05:05:40;;;;;;;;;;;-3.10;99.90;;;;;;5107868;27;20512;-75
2024/01/09 05:08:05;;;;;;;;;;;-4.20;99.90;;;;;;5125545;27;20400;-75
2024/01/09 05:10:31;;;;;;;;;;;-4.00;99.90;;;;;;5126817;27;19923;-76
2024/01/09 05:13:00;;;;;;;;;;;-3.10;99.90;;;;;;5143160;27;19934;-76
2024/01/09 05:15:25;;;;;;;;;;;-3.00;99.90;;;;;;5110121;27;19931;-75
2024/01/09 05:17:51;;;;;;;;;;;-3.10;99.90;;;;;;5108501;27;19938;-76
2024/01/09 05:20:17;;;;;;;;;;;-3.20;99.80;;;;;;5092869;27;20009;-75
2024/01/09 05:22:42;;;;;;;;;;;-2.60;99.90;;;;;;5108359;27;19934;-75
2024/01/09 05:25:08;;;;;;;;;;;-3.20;99.70;;;;;;5109006;27;19935;-75
2024/01/09 05:27:34;;;;;;;;;;;-4.00;99.40;;;;;;5106668;27;19927;-75
2024/01/09 05:30:00;;;;;;;;;;;-4.20;99.20;;;;;;5124791;27;20322;-75
2024/01/09 05:32:26;;;;;;;;;;;-3.50;99.30;;;;;;5140435;27;20054;-75
2024/01/09 05:34:51;;;;;;;;;;;-4.10;99.00;;;;;;5123844;27;19952;-75
2024/01/09 05:37:17;;;;;;;;;;;-1.90;99.50;;;;;;5125005;27;19974;-75
2024/01/09 05:39:46;;;;;;;;;;;-4.00;99.00;;;;;;5123945;27;19977;-75
2024/01/09 05:42:12;;;;;;;;;;;-2.40;99.30;;;;;;5125105;27;19934;-75
2024/01/09 05:44:38;;;;;;;;;;;-4.00;98.90;;;;;;5123091;27;19927;-74
2024/01/09 05:47:03;;;;;;;;;;;-3.80;98.90;;;;;;5123195;27;21355;-74
2024/01/09 05:49:29;;;;;;;;;;;-4.30;98.80;;;;;;5141588;27;19919;-74
2024/01/09 05:51:54;;;;;;;;;;;-2.50;99.20;;;;;;5122758;27;19976;-75
2024/01/09 05:54:26;;;;;;;;;;;-2.30;99.20;;;;;;5120817;27;20350;-74
2024/01/09 05:56:53;;;;;;;;;;;-4.10;98.80;;;;;;5116260;27;19927;-75
2024/01/09 05:59:19;;;;;;;;;;;-2.20;99.20;;;;;;5118030;27;19992;-74
2024/01/09 06:01:44;;;;;;;;;;;-4.00;98.90;;;;;;5103989;27;20377;-75
2024/01/09 06:04:10;;;;;;;;;;;-4.30;98.70;;;;;;5125056;27;19923;-74
2024/01/09 06:06:36;;;;;;;;;;;-3.70;98.80;;;;;;5125455;27;19927;-74
2024/01/09 06:09:02;;;;;;;;;;;-4.30;98.60;;;;;;5109062;27;20532;-75
2024/01/09 06:11:27;;;;;;;;;;;-4.10;98.60;;;;;;5124667;27;19934;-74
2024/01/09 06:13:55;;;;;;;;;;;-4.30;98.60;;;;;;5124310;27;19930;-74
2024/01/09 06:16:21;;;;;;;;;;;-2.30;99.00;;;;;;5123865;27;19927;-74
2024/01/09 06:18:47;;;;;;;;;;;-2.20;99.00;;;;;;5125639;27;19927;-74
2024/01/09 06:21:13;;;;;;;;;;;-3.30;98.70;;;;;;5145875;27;19930;-75
2024/01/09 06:23:39;;;;;;;;;;;-3.40;98.60;;;;;;5126913;27;20052;-74
2024/01/09 06:26:06;;;;;;;;;;;-4.30;98.30;;;;;;5105212;27;20014;-74
2024/01/09 06:28:34;;;;;;;;;;;-4.40;98.20;;;;;;5086967;27;19927;-74
2024/01/09 06:30:59;;;;;;;;;;;-4.20;98.00;;;;;;5126100;27;19946;-75
2024/01/09 06:33:26;;;;;;;;;;;-4.50;98.00;;;;;;5127809;27;20030;-75
2024/01/09 06:35:52;;;;;;;;;;;-4.50;97.80;;;;;;5124593;27;19927;-75
2024/01/09 06:38:18;;;;;;;;;;;-3.10;98.30;;;;;;5124728;27;19931;-74
2024/01/09 06:40:44;;;;;;;;;;;-4.30;97.60;;;;;;5125190;27;19926;-75
2024/01/09 06:43:09;;;;;;;;;;;-4.50;97.40;;;;;;5146669;27;19931;-74
2024/01/09 06:45:36;;;;;;;;;;;-4.50;97.40;;;;;;5124662;27;20761;-74
2024/01/09 06:48:02;;;;;;;;;;;-4.30;97.30;;;;;;5125244;27;19933;-73
2024/01/09 06:50:28;;;;;;;;;;;-4.20;97.40;;;;;;5121434;27;20440;-74
2024/01/09 06:52:53;;;;;;;;;;;-4.30;97.20;;;;;;5125678;27;19927;-74
2024/01/09 06:55:19;;;;;;;;;;;-2.30;97.60;;;;;;5128122;27;19923;-74
2024/01/09 06:57:45;;;;;;;;;;;-2.40;97.40;;;;;;5126190;27;20029;-74
2024/01/09 07:00:11;;;;;;;;;;;-2.60;97.40;;;;;;5106625;27;20433;-73
2024/01/09 07:02:36;;;;;;;;;;;-4.30;96.80;;;;;;5125895;27;19938;-75
2024/01/09 07:05:04;;;;;;;;;;;-4.40;96.80;;;;;;5109591;27;19931;-73
2024/01/09 07:07:30;;;;;;;;;;;-4.50;96.70;;;;;;5122835;27;19927;-77
2024/01/09 07:09:56;;;;;;;;;;;-4.60;96.40;;;;;;5123762;27;19934;-76
2024/01/09 07:12:22;;;;;;;;;;;-2.70;96.90;;;;;;5137081;27;20329;-74
2024/01/09 07:14:47;;;;;;;;;;;-3.90;96.50;;;;;;5124380;27;19934;-75
2024/01/09 07:17:13;;;;;;;;;;;-4.50;96.30;;;;;;5123141;27;19926;-75
2024/01/09 07:19:39;;;;;;;;;;;-4.40;96.40;;;;;;5122821;27;19927;-74
2024/01/09 07:22:04;;;;;;;;;;;-4.10;96.30;;;;;;5124259;27;19926;-75
2024/01/09 07:24:30;;;;;;;;;;;-2.50;96.60;;;;;;5123496;27;19931;-78
2024/01/09 07:27:02;;;;;;;;;;;-4.60;96.00;;;;;;5124046;27;19934;-77
2024/01/09 07:29:27;;;;;;;;;;;-4.70;96.20;;;;;;5106781;27;19927;-77
2024/01/09 07:31:53;;;;;;;;;;;-2.80;96.40;;;;;;5107477;27;19937;-78
2024/01/09 07:34:20;;;;;;;;;;;-4.60;95.80;;;;;;5109073;27;20390;-78
2024/01/09 07:36:46;;;;;;;;;;;-4.80;95.70;;;;;;5143107;27;19984;-78
2024/01/09 07:39:20;;;;;;;;;;;-4.10;95.80;;;;;;5109786;27;19974;-75
2024/01/09 07:41:46;;;;;;;;;;;-2.50;96.10;;;;;;5122692;27;19959;-77
2024/01/09 07:44:11;;;;;;;;;;;-3.10;95.90;;;;;;5142089;27;19923;-77
2024/01/09 07:46:37;;;;;;;;;;;-4.00;95.60;;;;;;5123462;27;19962;-76
2024/01/09 07:49:04;;;;;;;;;;;-5.70;95.30;;;;;;5110244;27;19985;-77
2024/01/09 07:51:31;;;;;;;;;;;-4.50;95.40;;;;;;5119765;27;19994;-76
2024/01/09 07:53:59;;;;;;;;;;;-4.80;95.30;;;;;;5121336;27;19926;-78
2024/01/09 07:56:25;;;;;;;;;;;-4.60;95.40;;;;;;5107102;27;19927;-77
2024/01/09 07:58:51;;;;;;;;;;;-2.90;95.80;;;;;;5105168;27;20006;-77
2024/01/09 08:01:18;;;;;;;;;;;-2.50;95.60;;;;;;5121346;27;20401;-77
2024/01/09 08:03:44;;;;;;;;;;;-4.30;94.90;;;;;;5090436;27;20824;-77
2024/01/09 08:06:14;;;;;;;;;;;-4.80;94.70;;;;;;5122461;27;19971;-76
2024/01/09 08:08:40;;;;;;;;;;;-4.60;94.50;;;;;;5137949;27;19952;-76
2024/01/09 08:11:06;;;;;;;;;;;-4.60;94.50;;;;;;5122561;27;20768;-75
2024/01/09 08:13:32;;;;;;;;;;;-4.70;94.40;;;;;;5121536;27;19927;-75
2024/01/09 08:15:58;;;;;;;;;;;-4.40;94.50;;;;;;5122320;27;19926;-75
2024/01/09 08:18:24;;;;;;;;;;;-3.50;94.80;;;;;;5124323;27;19999;-74
2024/01/09 08:20:50;;;;;;;;;;;-4.80;94.40;;;;;;5124881;27;20392;-75
2024/01/09 08:23:16;;;;;;;;;;;-3.40;94.80;;;;;;5104008;27;19923;-74
2024/01/09 08:25:42;;;;;;;;;;;-4.60;94.30;;;;;;5105379;27;20372;-74
2024/01/09 08:28:08;;;;;;;;;;;-4.50;94.30;;;;;;5102569;27;19931;-75
2024/01/09 08:30:34;;;;;;;;;;;-4.60;94.30;;;;;;5120684;27;19931;-75
2024/01/09 08:33:00;;;;;;;;;;;-4.90;94.30;;;;;;5120410;27;19931;-75
2024/01/09 08:35:25;;;;;;;;;;;-4.60;94.40;;;;;;5121796;27;19935;-74
2024/01/09 08:37:51;;;;;;;;;;;-2.80;94.80;;;;;;5122054;27;19997;-76
2024/01/09 08:40:17;;;;;;;;;;;-4.80;94.20;;;;;;5104107;27;19930;-74
2024/01/09 08:42:42;;;;;;;;;;;-3.80;94.40;;;;;;5094598;27;19974;-75
2024/01/09 08:45:08;;;;;;;;;;;-2.40;94.80;;;;;;5116648;27;20000;-73
2024/01/09 08:47:34;;;;;;;;;;;-4.60;94.10;;;;;;5105302;27;19927;-74
2024/01/09 08:50:01;;;;;;;;;;;-4.40;94.40;;;;;;5102968;27;19933;-74
2024/01/09 08:52:26;;;;;;;;;;;-4.00;95.60;;;;;;5136837;27;19927;-74
2024/01/09 08:54:53;;;;;;;;;;;-2.10;97.70;;;;;;5121667;27;20429;-75
2024/01/09 08:57:21;;;;;;;;;;;-0.30;98.00;;;;;;5119363;27;20479;-73
2024/01/09 08:59:48;;;;;;;;;;;0.00;95.80;;;;;;5129883;27;19931;-75
2024/01/09 09:02:13;;;;;;;;;;;1.10;91.20;;;;;;5123197;27;19950;-74
2024/01/09 09:04:41;;;;;;;;;;;3.20;84.00;;;;;;5119599;27;20454;-77
2024/01/09 09:07:07;;;;;;;;;;;2.80;73.10;;;;;;5101178;27;19976;-78
2024/01/09 09:09:35;;;;;;;;;;;3.90;52.80;;;;;;5120103;27;20370;-78
2024/01/09 09:12:02;;;;;;;;;;;3.90;36.10;;;;;;5117197;27;19959;-79
2024/01/09 09:14:28;;;;;;;;;;;4.10;7.40;;;;;;5120548;27;19924;-75
2024/01/09 09:16:53;;;;;;;;;;;3.20;1.00;;;;;;5121200;27;19938;-78
2024/01/09 09:19:22;;;;;;;;;;;2.20;1.00;;;;;;5105268;27;19967;-79
2024/01/09 09:21:52;;;;;;;;;;;1.60;1.00;;;;;;5118548;27;19923;-77
2024/01/09 09:24:17;;;;;;;;;;;0.50;1.20;;;;;;5118332;27;19931;-77
2024/01/09 09:26:43;;;;;;;;;;;1.40;9.00;;;;;;5120652;27;19923;-79
2024/01/09 09:29:09;;;;;;;;;;;0.20;24.10;;;;;;5109514;27;19927;-80
2024/01/09 09:31:35;;;;;;;;;;;-0.50;38.30;;;;;;5124003;27;19930;-78
2024/01/09 09:34:06;;;;;;;;;;;0.80;45.70;;;;;;5110042;27;19948;-76
2024/01/09 09:36:32;;;;;;;;;;;0.60;40.10;;;;;;5124453;27;19934;-78
2024/01/09 09:38:58;;;;;;;;;;;-0.30;23.70;;;;;;5126244;27;19927;-78
2024/01/09 09:41:39;;;;;;;;;;;0.50;30.30;;;;;;5128123;27;19950;-78
2024/01/09 09:44:07;;;;;;;;;;;-0.60;32.10;;;;;;5126648;27;20404;-75
2024/01/09 09:46:34;;;;;;;;;;;0.10;40.20;;;;;;5110221;27;19931;-75
2024/01/09 09:48:59;;;;;;;;;;;-0.20;40.60;;;;;;5109297;27;19927;-76
2024/01/09 09:51:25;;;;;;;;;;;-0.10;38.40;;;;;;5131467;27;19923;-75
2024/01/09 09:53:52;;;;;;;;;;;0.90;38.30;;;;;;5126013;27;19923;-75
2024/01/09 09:56:19;;;;;;;;;;;0.20;29.60;;;;;;5108470;27;20895;-75
2024/01/09 09:58:44;;;;;;;;;;;0.70;30.80;;;;;;5112815;27;19930;-75
2024/01/09 10:01:12;;;;;;;;;;;0.60;28.00;;;;;;5126023;27;19931;-75
2024/01/09 10:03:45;;;;;;;;;;;0.90;26.60;;;;;;5109550;27;19935;-75
2024/01/09 10:06:11;;;;;;;;;;;1.00;19.40;;;;;;5122872;27;20009;-75
2024/01/09 10:08:38;;;;;;;;;;;2.50;8.70;;;;;;5125195;27;20006;-75
2024/01/09 10:11:04;;;;;;;;;;;2.60;12.70;;;;;;5124737;27;19981;-75
2024/01/09 10:13:30;;;;;;;;;;;2.30;9.10;;;;;;5143216;27;19931;-75
2024/01/09 10:15:59;;;;;;;;;;;2.10;22.90;;;;;;5106434;27;19931;-75
2024/01/09 10:18:29;;;;;;;;;;;2.60;11.70;;;;;;5092096;27;19934;-76
2024/01/09 10:20:56;;;;;;;;;;;2.90;1.50;;;;;;5122075;27;20374;-76
2024/01/09 10:23:21;;;;;;;;;;;2.70;1.00;;;;;;5106034;27;20291;-75
2024/01/09 10:25:47;;;;;;;;;;;2.40;1.00;;;;;;5121565;27;20010;-76
2024/01/09 10:28:16;;;;;;;;;;;2.50;1.00;;;;;;5125274;27;20614;-75
2024/01/09 10:30:43;;;;;;;;;;;2.40;1.00;;;;;;5108068;27;19931;-76
2024/01/09 10:33:12;;;;;;;;;;;3.40;1.00;;;;;;5124689;27;19931;-75
2024/01/09 10:35:38;;;;;;;;;;;2.80;1.00;;;;;;5107741;27;20565;-76
2024/01/09 10:38:04;;;;;;;;;;;3.80;1.00;;;;;;5127844;27;20387;-76
2024/01/09 10:40:30;;;;;;;;;;;5.20;1.00;;;;;;5120640;27;20063;-76
2024/01/09 10:42:55;;;;;;;;;;;6.60;99.90;;;;;;5100879;27;19927;-76
2024/01/09 10:45:26;;;;;;;;;;;7.80;99.90;;;;;;5121805;27;19953;-77
2024/01/09 10:47:53;;;;;;;;;;;8.50;82.70;;;;;;5124838;27;19967;-76
2024/01/09 10:50:20;;;;;;;;;;;7.90;94.60;;;;;;5123630;27;19927;-77
2024/01/09 10:52:46;;;;;;;;;;;7.20;94.50;;;;;;5122224;27;19907;-76
2024/01/09 10:55:16;;;;;;;;;;;6.80;96.60;;;;;;5141810;27;19928;-77
2024/01/09 10:57:42;;;;;;;;;;;6.90;96.50;;;;;;5124864;27;19927;-81
2024/01/09 11:00:11;;;;;;;;;;;6.70;96.90;;;;;;5105731;27;19923;-79
2024/01/09 11:02:37;;;;;;;;;;;6.00;95.60;;;;;;5123740;27;19994;-80
2024/01/09 11:05:08;;;;;;;;;;;5.10;55.50;;;;;;5122381;27;20014;-77
2024/01/09 11:07:34;;;;;;;;;;;4.30;99.90;;;;;;5122603;27;19931;-76
2024/01/09 11:10:00;;;;;;;;;;;3.60;91.90;;;;;;5142133;27;19927;-80
2024/01/09 11:12:27;;;;;;;;;;;3.10;99.90;;;;;;5105238;27;19931;-78
2024/01/09 11:14:57;;;;;;;;;;;3.00;99.90;;;;;;5127110;27;19927;-77
2024/01/09 11:17:24;;;;;;;;;;;2.10;99.90;;;;;;5121111;27;19938;-76
2024/01/09 11:19:50;;;;;;;;;;;2.20;1.00;;;;;;5122251;27;19962;-77
2024/01/09 11:22:16;;;;;;;;;;;-0.40;1.00;;;;;;5124362;27;19927;-77
2024/01/09 11:24:44;;;;;;;;;;;2.00;1.00;;;;;;5123348;27;19931;-77
2024/01/09 11:27:11;;;;;;;;;;;0.80;79.00;;;;;;5125317;27;19927;-77
2024/01/09 11:29:52;;;;;;;;;;;0.60;1.00;;;;;;5123592;27;19943;-76
2024/01/09 11:32:19;;;;;;;;;;;0.40;94.70;;;;;;5123044;27;20424;-77
2024/01/09 11:34:47;;;;;;;;;;;0.30;99.90;;;;;;5142563;27;20450;-77
2024/01/09 11:37:13;;;;;;;;;;;0.60;1.00;;;;;;5142159;27;20015;-77
2024/01/09 11:39:40;;;;;;;;;;;0.20;99.90;;;;;;5123865;27;19926;-75
2024/01/09 11:42:05;;;;;;;;;;;-0.10;22.80;;;;;;5123526;27;19927;-77
2024/01/09 11:44:31;;;;;;;;;;;-0.20;99.90;;;;;;5124086;27;19938;-77
2024/01/09 11:46:56;;;;;;;;;;;1.40;99.90;;;;;;5107007;27;19931;-76
2024/01/09 11:49:22;;;;;;;;;;;1.30;99.90;;;;;;5135936;27;19930;-77
2024/01/09 11:51:48;;;;;;;;;;;0.10;1.00;;;;;;5098653;27;20156;-77
2024/01/09 11:54:13;;;;;;;;;;;0.50;5.20;;;;;;5103774;27;19931;-78
2024/01/09 11:56:40;;;;;;;;;;;-0.60;99.90;;;;;;5085449;27;19980;-78
2024/01/09 11:59:07;;;;;;;;;;;-0.60;99.90;;;;;;5107644;27;19938;-80
2024/01/09 12:01:39;;;;;;;;;;;-0.80;99.90;;;;;;5125028;27;20460;-78
2024/01/09 12:04:06;;;;;;;;;;;1.20;99.90;;;;;;5140056;27;20006;-80
2024/01/09 12:06:32;;;;;;;;;;;-0.80;1.00;;;;;;5124961;27;19935;-76
2024/01/09 12:08:59;;;;;;;;;;;1.20;1.00;;;;;;5124556;27;19927;-76
2024/01/09 12:11:25;;;;;;;;;;;-0.80;1.00;;;;;;5124327;27;19919;-76
2024/01/09 12:14:03;;;;;;;;;;;-0.20;1.00;;;;;;5124420;27;19934;-77
2024/01/09 12:16:29;;;;;;;;;;;-0.90;1.00;;;;;;5123438;27;19926;-76
2024/01/09 12:18:56;;;;;;;;;;;0.70;1.00;;;;;;5141808;27;19924;-76
2024/01/09 12:21:26;;;;;;;;;;;-0.40;1.00;;;;;;5124400;27;19933;-76
2024/01/09 12:23:55;;;;;;;;;;;-0.90;1.00;;;;;;5122908;27;19927;-76
2024/01/09 12:26:22;;;;;;;;;;;-1.00;1.00;;;;;;5123025;27;19957;-75
2024/01/09 12:28:48;;;;;;;;;;;-1.00;1.00;;;;;;5140352;27;19931;-75
2024/01/09 12:31:15;;;;;;;;;;;-1.00;16.60;;;;;;5107329;27;19923;-76
2024/01/09 12:33:41;;;;;;;;;;;-1.00;41.80;;;;;;5122817;27;20222;-76
2024/01/09 12:36:07;;;;;;;;;;;-0.90;1.00;;;;;;5124716;27;19934;-76
2024/01/09 12:38:33;;;;;;;;;;;-1.00;26.20;;;;;;5122645;27;19955;-77
2024/01/09 12:41:06;;;;;;;;;;;0.60;99.90;;;;;;5122761;27;19939;-79
2024/01/09 12:43:33;;;;;;;;;;;-0.80;99.90;;;;;;5125076;27;19950;-76
2024/01/09 12:45:59;;;;;;;;;;;0.10;65.30;;;;;;5122629;27;19931;-77
2024/01/09 12:48:26;;;;;;;;;;;-1.00;99.90;;;;;;5123762;27;20788;-77
2024/01/09 12:51:02;;;;;;;;;;;-0.10;99.90;;;;;;5123026;27;20333;-76
2024/01/09 12:53:31;;;;;;;;;;;-1.00;99.90;;;;;;5103852;27;20477;-76
2024/01/09 12:56:01;;;;;;;;;;;0.70;99.90;;;;;;5121895;27;19938;-75
2024/01/09 12:58:28;;;;;;;;;;;-1.00;99.90;;;;;;5139672;27;19923;-77
2024/01/09 13:00:53;;;;;;;;;;;-1.00;99.90;;;;;;5121978;27;19926;-76
2024/01/09 13:03:19;;;;;;;;;;;0.90;99.90;;;;;;5107725;27;20944;-77
2024/01/09 13:05:44;;;;;;;;;;;-1.00;99.90;;;;;;5124239;27;20113;-76
2024/01/09 13:08:11;;;;;;;;;;;-0.90;99.90;;;;;;5123509;27;19945;-76
2024/01/09 13:10:36;;;;;;;;;;;0.70;99.90;;;;;;5142038;27;20646;-76
2024/01/09 13:13:02;;;;;;;;;;;-0.80;99.90;;;;;;5141763;27;19927;-76
2024/01/09 13:15:28;;;;;;;;;;;-1.00;99.90;;;;;;5105803;27;19931;-76
2024/01/09 13:17:53;;;;;;;;;;;1.00;99.90;;;;;;5108312;27;19928;-76
2024/01/09 13:20:21;;;;;;;;;;;0.50;99.90;;;;;;5105660;27;20001;-76
2024/01/09 13:22:47;;;;;;;;;;;-1.00;99.90;;;;;;5124095;27;19962;-75
2024/01/09 13:25:13;;;;;;;;;;;0.40;99.90;;;;;;5110109;27;20020;-75
2024/01/09 13:27:38;;;;;;;;;;;-1.00;99.90;;;;;;5123468;27;19984;-74
2024/01/09 13:30:04;;;;;;;;;;;-1.00;99.90;;;;;;5141055;27;19990;-80
2024/01/09 13:32:34;;;;;;;;;;;-0.20;99.90;;;;;;5091309;27;20019;-79
2024/01/09 13:35:00;;;;;;;;;;;0.50;99.90;;;;;;5128585;27;19927;-76
2024/01/09 13:37:26;;;;;;;;;;;-1.00;99.90;;;;;;5103870;27;19981;-76
2024/01/09 13:39:52;;;;;;;;;;;-1.00;99.90;;;;;;5105640;27;19950;-75
2024/01/09 13:42:18;;;;;;;;;;;-1.00;99.90;;;;;;5124147;27;20510;-75
2024/01/09 13:44:44;;;;;;;;;;;-1.00;99.90;;;;;;5122984;27;20281;-75
2024/01/09 13:47:10;;;;;;;;;;;-1.00;99.90;;;;;;5111852;27;19928;-75
2024/01/09 13:49:35;;;;;;;;;;;-1.00;99.90;;;;;;5123518;27;19927;-76
2024/01/09 13:52:01;;;;;;;;;;;1.10;99.90;;;;;;5133513;27;19938;-75
2024/01/09 13:54:26;;;;;;;;;;;-0.10;99.90;;;;;;5126780;27;20263;-74
2024/01/09 13:56:52;;;;;;;;;;;0.70;99.90;;;;;;5123939;27;20070;-76
2024/01/09 13:59:18;;;;;;;;;;;-1.00;99.90;;;;;;5126828;27;19931;-76
2024/01/09 14:01:44;;;;;;;;;;;-1.00;99.90;;;;;;5126455;27;19960;-75
2024/01/09 14:04:15;;;;;;;;;;;-1.00;99.90;;;;;;5124912;27;20014;-75
2024/01/09 14:06:41;;;;;;;;;;;-0.80;99.90;;;;;;5092911;27;20268;-75
2024/01/09 14:09:07;;;;;;;;;;;-0.50;99.90;;;;;;5105086;27;20000;-75
2024/01/09 14:11:33;;;;;;;;;;;-1.00;99.90;;;;;;5092375;27;20097;-75
2024/01/09 14:13:58;;;;;;;;;;;-0.50;99.90;;;;;;5140906;27;20068;-74
2024/01/09 14:16:24;;;;;;;;;;;-1.00;99.90;;;;;;5124260;27;19927;-75